sensor_id;sensor_type;location;lat;lon;timestamp;pressure;altitude;pressure_sealevel;temperature;humidity
61676;BME280;47574;52.090;5.244;2023-04-27T00:01:33;102125.0;;;10.51;48.26
61676;BME280;47574;52.090;5.244;2023-04-27T00:03:09;102118.0;;;10.43;48.23
61676;BME280;47574;52.090;5.244;2023-04-27T00:04:45;102118.0;;;10.45;48.22
61676;BME280;47574;52.090;5.244;2023-04-27T00:07:58;102123.0;;;10.68;47.87
61676;BME280;47574;52.090;5.244;2023-04-27T00:09:34;102122.0;;;10.55;48.14
61676;BME280;47574;52.090;5.244;2023-04-27T00:11:10;102123.0;;;10.49;48.2
61676;BME280;47574;52.090;5.244;2023-04-27T00:14:23;102121.0;;;10.49;48.3
61676;BME280;47574;52.090;5.244;2023-04-27T00:15:59;102120.0;;;10.36;48.43
61676;BME280;47574;52.090;5.244;2023-04-27T00:17:36;102124.0;;;10.64;48.04
61676;BME280;47574;52.090;5.244;2023-04-27T00:20:48;102126.0;;;10.47;48.24
61676;BME280;47574;52.090;5.244;2023-04-27T00:22:24;102124.0;;;10.42;48.27
61676;BME280;47574;52.090;5.244;2023-04-27T00:24:00;102123.0;;;10.17;48.73
61676;BME280;47574;52.090;5.244;2023-04-27T00:25:37;102119.0;;;10.4;48.22
61676;BME280;47574;52.090;5.244;2023-04-27T00:28:50;102118.0;;;10.4;48.05
61676;BME280;47574;52.090;5.244;2023-04-27T00:30:26;102117.0;;;10.24;48.0
61676;BME280;47574;52.090;5.244;2023-04-27T00:32:02;102109.0;;;10.31;47.59
61676;BME280;47574;52.090;5.244;2023-04-27T00:35:14;102113.0;;;10.09;47.89
61676;BME280;47574;52.090;5.244;2023-04-27T00:36:50;102110.0;;;10.22;47.61
61676;BME280;47574;52.090;5.244;2023-04-27T00:38:27;102110.0;;;10.11;47.8
61676;BME280;47574;52.090;5.244;2023-04-27T00:41:41;102112.0;;;9.85;48.01
61676;BME280;47574;52.090;5.244;2023-04-27T00:43:17;102116.0;;;9.93;47.69
61676;BME280;47574;52.090;5.244;2023-04-27T00:44:53;102120.0;;;9.99;47.63
61676;BME280;47574;52.090;5.244;2023-04-27T00:46:33;102122.0;;;9.91;47.86
61676;BME280;47574;52.090;5.244;2023-04-27T00:49:46;102123.0;;;9.52;48.54
61676;BME280;47574;52.090;5.244;2023-04-27T00:51:22;102120.0;;;9.56;48.72
61676;BME280;47574;52.090;5.244;2023-04-27T00:52:59;102118.0;;;9.66;48.35
61676;BME280;47574;52.090;5.244;2023-04-27T00:56:13;102115.0;;;9.73;48.04
61676;BME280;47574;52.090;5.244;2023-04-27T00:57:49;102120.0;;;9.64;48.09
61676;BME280;47574;52.090;5.244;2023-04-27T00:59:25;102115.0;;;9.51;48.55
61676;BME280;47574;52.090;5.244;2023-04-27T01:02:39;102113.0;;;9.56;48.21
61676;BME280;47574;52.090;5.244;2023-04-27T01:04:15;102106.0;;;9.53;48.33
61676;BME280;47574;52.090;5.244;2023-04-27T01:05:51;102102.0;;;9.53;48.28
61676;BME280;47574;52.090;5.244;2023-04-27T01:07:28;102103.0;;;9.31;48.45
61676;BME280;47574;52.090;5.244;2023-04-27T01:10:40;102100.0;;;9.52;48.1
61676;BME280;47574;52.090;5.244;2023-04-27T01:12:16;102098.0;;;9.73;47.62
61676;BME280;47574;52.090;5.244;2023-04-27T01:13:52;102100.0;;;9.53;48.07
61676;BME280;47574;52.090;5.244;2023-04-27T01:17:06;102102.0;;;9.56;48.05
61676;BME280;47574;52.090;5.244;2023-04-27T01:18:42;102106.0;;;9.56;48.07
61676;BME280;47574;52.090;5.244;2023-04-27T01:20:18;102109.0;;;9.56;48.12
61676;BME280;47574;52.090;5.244;2023-04-27T01:23:31;102108.0;;;9.41;48.45
61676;BME280;47574;52.090;5.244;2023-04-27T01:25:07;102110.0;;;9.56;48.06
61676;BME280;47574;52.090;5.244;2023-04-27T01:26:43;102116.0;;;9.48;48.3
61676;BME280;47574;52.090;5.244;2023-04-27T01:29:55;102119.0;;;9.46;48.37
61676;BME280;47574;52.090;5.244;2023-04-27T01:31:32;102117.0;;;9.46;48.62
61676;BME280;47574;52.090;5.244;2023-04-27T01:33:08;102115.0;;;9.46;48.6
61676;BME280;47574;52.090;5.244;2023-04-27T01:34:45;102107.0;;;9.43;48.5
61676;BME280;47574;52.090;5.244;2023-04-27T01:37:57;102103.0;;;9.31;48.85
61676;BME280;47574;52.090;5.244;2023-04-27T01:39:33;102102.0;;;9.33;48.59
61676;BME280;47574;52.090;5.244;2023-04-27T01:41:09;102100.0;;;9.32;48.62
61676;BME280;47574;52.090;5.244;2023-04-27T01:44:21;102096.0;;;9.23;48.73
61676;BME280;47574;52.090;5.244;2023-04-27T01:46:04;102093.0;;;9.05;49.13
61676;BME280;47574;52.090;5.244;2023-04-27T01:47:40;102090.0;;;9.15;48.76
61676;BME280;47574;52.090;5.244;2023-04-27T01:50:53;102090.0;;;9.19;48.52
61676;BME280;47574;52.090;5.244;2023-04-27T01:52:29;102087.0;;;9.16;48.55
61676;BME280;47574;52.090;5.244;2023-04-27T01:54:05;102090.0;;;9.33;48.14
61676;BME280;47574;52.090;5.244;2023-04-27T01:55:42;102093.0;;;9.31;48.22
61676;BME280;47574;52.090;5.244;2023-04-27T01:58:54;102091.0;;;9.27;48.23
61676;BME280;47574;52.090;5.244;2023-04-27T02:00:30;102087.0;;;9.14;48.66
61676;BME280;47574;52.090;5.244;2023-04-27T02:02:06;102089.0;;;9.14;48.67
61676;BME280;47574;52.090;5.244;2023-04-27T02:05:19;102089.0;;;9.3;48.21
61676;BME280;47574;52.090;5.244;2023-04-27T02:06:55;102091.0;;;9.16;48.49
61676;BME280;47574;52.090;5.244;2023-04-27T02:08:31;102091.0;;;9.09;48.57
61676;BME280;47574;52.090;5.244;2023-04-27T02:11:44;102096.0;;;8.98;48.87
61676;BME280;47574;52.090;5.244;2023-04-27T02:13:20;102094.0;;;8.83;49.24
61676;BME280;47574;52.090;5.244;2023-04-27T02:14:56;102092.0;;;8.99;48.88
61676;BME280;47574;52.090;5.244;2023-04-27T02:16:33;102090.0;;;8.91;49.05
61676;BME280;47574;52.090;5.244;2023-04-27T02:19:46;102091.0;;;8.93;48.96
61676;BME280;47574;52.090;5.244;2023-04-27T02:21:22;102093.0;;;9.11;48.71
61676;BME280;47574;52.090;5.244;2023-04-27T02:22:58;102098.0;;;8.83;49.14
61676;BME280;47574;52.090;5.244;2023-04-27T02:26:15;102091.0;;;9.15;48.39
61676;BME280;47574;52.090;5.244;2023-04-27T02:27:51;102091.0;;;8.88;49.12
61676;BME280;47574;52.090;5.244;2023-04-27T02:29:29;102093.0;;;8.89;49.18
61676;BME280;47574;52.090;5.244;2023-04-27T02:32:42;102091.0;;;9.11;48.58
61676;BME280;47574;52.090;5.244;2023-04-27T02:34:18;102091.0;;;8.83;48.99
61676;BME280;47574;52.090;5.244;2023-04-27T02:35:54;102091.0;;;8.91;48.61
61676;BME280;47574;52.090;5.244;2023-04-27T02:37:30;102086.0;;;9.03;48.28
61676;BME280;47574;52.090;5.244;2023-04-27T02:40:42;102083.0;;;8.84;48.61
61676;BME280;47574;52.090;5.244;2023-04-27T02:42:18;102074.0;;;8.98;48.21
61676;BME280;47574;52.090;5.244;2023-04-27T02:43:54;102075.0;;;9.03;48.04
61676;BME280;47574;52.090;5.244;2023-04-27T02:47:07;102070.0;;;8.67;48.58
61676;BME280;47574;52.090;5.244;2023-04-27T02:48:43;102076.0;;;8.92;48.32
61676;BME280;47574;52.090;5.244;2023-04-27T02:50:19;102073.0;;;8.92;48.01
61676;BME280;47574;52.090;5.244;2023-04-27T02:53:31;102069.0;;;8.85;48.14
61676;BME280;47574;52.090;5.244;2023-04-27T02:55:08;102069.0;;;8.85;48.33
61676;BME280;47574;52.090;5.244;2023-04-27T02:56:44;102072.0;;;8.84;48.39
61676;BME280;47574;52.090;5.244;2023-04-27T02:58:20;102073.0;;;8.73;48.55
61676;BME280;47574;52.090;5.244;2023-04-27T03:01:33;102073.0;;;8.72;48.6
61676;BME280;47574;52.090;5.244;2023-04-27T03:03:09;102075.0;;;8.81;48.61
61676;BME280;47574;52.090;5.244;2023-04-27T03:04:45;102080.0;;;8.76;48.46
61676;BME280;47574;52.090;5.244;2023-04-27T03:07:57;102081.0;;;8.69;48.68
61676;BME280;47574;52.090;5.244;2023-04-27T03:09:34;102077.0;;;8.61;49.06
61676;BME280;47574;52.090;5.244;2023-04-27T03:11:09;102080.0;;;8.88;48.44
61676;BME280;47574;52.090;5.244;2023-04-27T03:14:22;102082.0;;;8.84;48.35
61676;BME280;47574;52.090;5.244;2023-04-27T03:15:58;102084.0;;;8.73;48.3
61676;BME280;47574;52.090;5.244;2023-04-27T03:17:34;102084.0;;;8.92;48.14
61676;BME280;47574;52.090;5.244;2023-04-27T03:20:46;102087.0;;;8.85;48.24
61676;BME280;47574;52.090;5.244;2023-04-27T03:22:23;102084.0;;;8.89;48.03
61676;BME280;47574;52.090;5.244;2023-04-27T03:23:59;102090.0;;;8.85;48.09
61676;BME280;47574;52.090;5.244;2023-04-27T03:25:35;102090.0;;;8.66;48.67
61676;BME280;47574;52.090;5.244;2023-04-27T03:28:47;102087.0;;;8.77;48.39
61676;BME280;47574;52.090;5.244;2023-04-27T03:30:23;102089.0;;;8.75;48.31
61676;BME280;47574;52.090;5.244;2023-04-27T03:31:59;102085.0;;;8.85;47.88
61676;BME280;47574;52.090;5.244;2023-04-27T03:35:12;102088.0;;;8.65;48.18
61676;BME280;47574;52.090;5.244;2023-04-27T03:36:48;102084.0;;;8.74;47.93
61676;BME280;47574;52.090;5.244;2023-04-27T03:38:26;102087.0;;;8.78;47.97
61676;BME280;47574;52.090;5.244;2023-04-27T03:41:40;102081.0;;;8.8;47.82
61676;BME280;47574;52.090;5.244;2023-04-27T03:43:16;102083.0;;;8.59;48.11
61676;BME280;47574;52.090;5.244;2023-04-27T03:44:52;102081.0;;;8.58;48.47
61676;BME280;47574;52.090;5.244;2023-04-27T03:46:28;102078.0;;;8.48;48.5
61676;BME280;47574;52.090;5.244;2023-04-27T03:49:40;102083.0;;;8.44;48.68
61676;BME280;47574;52.090;5.244;2023-04-27T03:51:16;102081.0;;;8.33;48.99
61676;BME280;47574;52.090;5.244;2023-04-27T03:52:52;102085.0;;;8.41;48.92
61676;BME280;47574;52.090;5.244;2023-04-27T03:56:06;102084.0;;;8.63;48.46
61676;BME280;47574;52.090;5.244;2023-04-27T03:57:42;102082.0;;;8.49;48.58
61676;BME280;47574;52.090;5.244;2023-04-27T03:59:18;102087.0;;;8.48;48.48
61676;BME280;47574;52.090;5.244;2023-04-27T04:02:30;102086.0;;;8.59;48.31
61676;BME280;47574;52.090;5.244;2023-04-27T04:04:06;102087.0;;;8.61;48.11
61676;BME280;47574;52.090;5.244;2023-04-27T04:05:42;102089.0;;;8.66;47.91
61676;BME280;47574;52.090;5.244;2023-04-27T04:08:55;102095.0;;;8.6;48.32
61676;BME280;47574;52.090;5.244;2023-04-27T04:10:31;102092.0;;;8.68;48.13
61676;BME280;47574;52.090;5.244;2023-04-27T04:12:07;102089.0;;;8.58;48.31
61676;BME280;47574;52.090;5.244;2023-04-27T04:13:43;102091.0;;;8.56;48.56
61676;BME280;47574;52.090;5.244;2023-04-27T04:16:55;102093.0;;;8.77;48.22
61676;BME280;47574;52.090;5.244;2023-04-27T04:18:31;102097.0;;;8.59;48.47
61676;BME280;47574;52.090;5.244;2023-04-27T04:20:08;102101.0;;;8.88;48.12
61676;BME280;47574;52.090;5.244;2023-04-27T04:23:21;102103.0;;;8.64;48.52
61676;BME280;47574;52.090;5.244;2023-04-27T04:24:57;102105.0;;;8.65;48.64
61676;BME280;47574;52.090;5.244;2023-04-27T04:26:33;102105.0;;;8.8;48.27
61676;BME280;47574;52.090;5.244;2023-04-27T04:29:45;102105.0;;;8.82;48.34
61676;BME280;47574;52.090;5.244;2023-04-27T04:31:21;102106.0;;;8.71;48.62
61676;BME280;47574;52.090;5.244;2023-04-27T04:32:57;102112.0;;;8.57;49.0
61676;BME280;47574;52.090;5.244;2023-04-27T04:36:10;102109.0;;;8.58;49.27
61676;BME280;47574;52.090;5.244;2023-04-27T04:37:46;102115.0;;;8.8;48.78
61676;BME280;47574;52.090;5.244;2023-04-27T04:39:22;102113.0;;;8.82;48.83
61676;BME280;47574;52.090;5.244;2023-04-27T04:40:58;102117.0;;;8.92;48.77
61676;BME280;47574;52.090;5.244;2023-04-27T04:44:10;102121.0;;;8.81;49.01
61676;BME280;47574;52.090;5.244;2023-04-27T04:45:46;102126.0;;;8.83;49.05
61676;BME280;47574;52.090;5.244;2023-04-27T04:47:23;102126.0;;;9.14;48.57
61676;BME280;47574;52.090;5.244;2023-04-27T04:50:35;102127.0;;;8.85;48.85
61676;BME280;47574;52.090;5.244;2023-04-27T04:52:11;102128.0;;;9.11;48.32
61676;BME280;47574;52.090;5.244;2023-04-27T04:53:47;102122.0;;;8.76;49.18
61676;BME280;47574;52.090;5.244;2023-04-27T04:57:00;102125.0;;;9.03;48.61
61676;BME280;47574;52.090;5.244;2023-04-27T04:58:36;102125.0;;;8.98;48.74
61676;BME280;47574;52.090;5.244;2023-04-27T05:00:14;102127.0;;;9.06;48.62
61676;BME280;47574;52.090;5.244;2023-04-27T05:01:49;102123.0;;;9.1;48.32
61676;BME280;47574;52.090;5.244;2023-04-27T05:05:02;102124.0;;;8.81;48.89
61676;BME280;47574;52.090;5.244;2023-04-27T05:06:39;102122.0;;;9.06;48.44
61676;BME280;47574;52.090;5.244;2023-04-27T05:08:15;102121.0;;;8.98;48.74
61676;BME280;47574;52.090;5.244;2023-04-27T05:11:27;102119.0;;;8.97;48.94
61676;BME280;47574;52.090;5.244;2023-04-27T05:13:03;102121.0;;;9.28;48.66
61676;BME280;47574;52.090;5.244;2023-04-27T05:14:40;102119.0;;;9.28;48.75
61676;BME280;47574;52.090;5.244;2023-04-27T05:17:53;102119.0;;;9.5;48.48
61676;BME280;47574;52.090;5.244;2023-04-27T05:19:29;102119.0;;;9.6;48.34
61676;BME280;47574;52.090;5.244;2023-04-27T05:21:12;102121.0;;;9.77;48.17
61676;BME280;47574;52.090;5.244;2023-04-27T05:22:48;102127.0;;;9.81;48.04
61676;BME280;47574;52.090;5.244;2023-04-27T05:26:00;102132.0;;;9.69;48.46
61676;BME280;47574;52.090;5.244;2023-04-27T05:27:36;102126.0;;;9.8;48.19
61676;BME280;47574;52.090;5.244;2023-04-27T05:29:13;102125.0;;;10.07;47.78
61676;BME280;47574;52.090;5.244;2023-04-27T05:32:25;102130.0;;;10.14;47.75
61676;BME280;47574;52.090;5.244;2023-04-27T05:34:01;102130.0;;;10.23;47.53
61676;BME280;47574;52.090;5.244;2023-04-27T05:35:37;102128.0;;;10.33;47.56
61676;BME280;47574;52.090;5.244;2023-04-27T05:38:49;102130.0;;;10.43;47.4
61676;BME280;47574;52.090;5.244;2023-04-27T05:40:26;102136.0;;;10.27;47.75
61676;BME280;47574;52.090;5.244;2023-04-27T05:42:03;102133.0;;;10.42;47.63
61676;BME280;47574;52.090;5.244;2023-04-27T05:43:39;102127.0;;;10.57;47.24
61676;BME280;47574;52.090;5.244;2023-04-27T05:46:51;102133.0;;;10.73;47.03
61676;BME280;47574;52.090;5.244;2023-04-27T05:48:27;102131.0;;;10.79;46.8
61676;BME280;47574;52.090;5.244;2023-04-27T05:50:04;102130.0;;;10.83;46.81
61676;BME280;47574;52.090;5.244;2023-04-27T05:53:16;102130.0;;;10.79;47.0
61676;BME280;47574;52.090;5.244;2023-04-27T05:54:52;102127.0;;;10.8;47.03
61676;BME280;47574;52.090;5.244;2023-04-27T05:56:29;102128.0;;;10.72;47.19
61676;BME280;47574;52.090;5.244;2023-04-27T05:59:41;102132.0;;;10.67;47.68
61676;BME280;47574;52.090;5.244;2023-04-27T06:01:18;102130.0;;;10.93;46.73
61676;BME280;47574;52.090;5.244;2023-04-27T06:02:54;102130.0;;;10.96;46.68
61676;BME280;47574;52.090;5.244;2023-04-27T06:06:06;102128.0;;;11.01;46.46
61676;BME280;47574;52.090;5.244;2023-04-27T06:07:42;102130.0;;;11.23;45.84
61676;BME280;47574;52.090;5.244;2023-04-27T06:09:19;102134.0;;;11.24;45.82
61676;BME280;47574;52.090;5.244;2023-04-27T06:10:55;102127.0;;;11.15;45.79
61676;BME280;47574;52.090;5.244;2023-04-27T06:14:07;102131.0;;;11.34;45.06
61676;BME280;47574;52.090;5.244;2023-04-27T06:15:43;102134.0;;;11.56;44.57
61676;BME280;47574;52.090;5.244;2023-04-27T06:17:20;102132.0;;;11.57;44.7
61676;BME280;47574;52.090;5.244;2023-04-27T06:20:32;102131.0;;;11.69;44.48
61676;BME280;47574;52.090;5.244;2023-04-27T06:22:09;102134.0;;;11.53;44.63
61676;BME280;47574;52.090;5.244;2023-04-27T06:23:45;102133.0;;;11.66;44.2
61676;BME280;47574;52.090;5.244;2023-04-27T06:26:57;102137.0;;;11.72;44.12
61676;BME280;47574;52.090;5.244;2023-04-27T06:28:33;102131.0;;;11.77;44.27
61676;BME280;47574;52.090;5.244;2023-04-27T06:30:10;102134.0;;;11.66;44.44
61676;BME280;47574;52.090;5.244;2023-04-27T06:31:46;102134.0;;;11.74;44.46
61676;BME280;47574;52.090;5.244;2023-04-27T06:34:59;102135.0;;;11.74;44.19
61676;BME280;47574;52.090;5.244;2023-04-27T06:36:35;102135.0;;;12.0;43.77
61676;BME280;47574;52.090;5.244;2023-04-27T06:38:11;102131.0;;;12.01;43.82
61676;BME280;47574;52.090;5.244;2023-04-27T06:41:24;102131.0;;;12.17;43.39
61676;BME280;47574;52.090;5.244;2023-04-27T06:43:01;102137.0;;;12.23;43.55
61676;BME280;47574;52.090;5.244;2023-04-27T06:44:37;102131.0;;;12.42;42.83
61676;BME280;47574;52.090;5.244;2023-04-27T06:47:50;102134.0;;;12.51;42.5
61676;BME280;47574;52.090;5.244;2023-04-27T06:49:26;102135.0;;;12.48;42.66
61676;BME280;47574;52.090;5.244;2023-04-27T06:51:02;102133.0;;;12.52;42.1
61676;BME280;47574;52.090;5.244;2023-04-27T06:52:39;102130.0;;;12.52;41.75
61676;BME280;47574;52.090;5.244;2023-04-27T06:55:51;102126.0;;;12.69;41.36
61676;BME280;47574;52.090;5.244;2023-04-27T06:57:27;102125.0;;;12.61;41.15
61676;BME280;47574;52.090;5.244;2023-04-27T06:59:04;102122.0;;;12.6;40.71
61676;BME280;47574;52.090;5.244;2023-04-27T07:02:16;102124.0;;;12.44;41.0
61676;BME280;47574;52.090;5.244;2023-04-27T07:03:52;102123.0;;;12.94;40.47
61676;BME280;47574;52.090;5.244;2023-04-27T07:05:28;102125.0;;;13.01;40.31
61676;BME280;47574;52.090;5.244;2023-04-27T07:08:40;102124.0;;;12.62;40.14
61676;BME280;47574;52.090;5.244;2023-04-27T07:10:18;102123.0;;;12.73;39.92
61676;BME280;47574;52.090;5.244;2023-04-27T07:11:54;102125.0;;;12.95;39.54
61676;BME280;47574;52.090;5.244;2023-04-27T07:15:07;102131.0;;;13.17;39.5
61676;BME280;47574;52.090;5.244;2023-04-27T07:16:45;102141.0;;;13.35;38.9
61676;BME280;47574;52.090;5.244;2023-04-27T07:18:21;102136.0;;;13.07;38.31
61676;BME280;47574;52.090;5.244;2023-04-27T07:19:58;102136.0;;;13.42;37.92
61676;BME280;47574;52.090;5.244;2023-04-27T07:23:09;102138.0;;;13.33;37.76
61676;BME280;47574;52.090;5.244;2023-04-27T07:24:46;102142.0;;;13.27;37.85
61676;BME280;47574;52.090;5.244;2023-04-27T07:26:22;102141.0;;;13.73;37.72
61676;BME280;47574;52.090;5.244;2023-04-27T07:29:34;102137.0;;;13.77;37.71
61676;BME280;47574;52.090;5.244;2023-04-27T07:31:10;102135.0;;;13.51;37.92
61676;BME280;47574;52.090;5.244;2023-04-27T07:32:48;102130.0;;;13.18;37.78
61676;BME280;47574;52.090;5.244;2023-04-27T07:36:02;102131.0;;;13.2;37.56
61676;BME280;47574;52.090;5.244;2023-04-27T07:37:38;102127.0;;;13.58;37.49
61676;BME280;47574;52.090;5.244;2023-04-27T07:39:14;102119.0;;;13.52;37.03
61676;BME280;47574;52.090;5.244;2023-04-27T07:40:50;102119.0;;;13.54;36.68
61676;BME280;47574;52.090;5.244;2023-04-27T07:44:02;102113.0;;;13.83;36.5
61676;BME280;47574;52.090;5.244;2023-04-27T07:45:39;102117.0;;;13.54;36.78
61676;BME280;47574;52.090;5.244;2023-04-27T07:47:15;102120.0;;;13.77;36.47
61676;BME280;47574;52.090;5.244;2023-04-27T07:50:29;102124.0;;;13.96;36.21
61676;BME280;47574;52.090;5.244;2023-04-27T07:52:06;102130.0;;;13.62;36.31
61676;BME280;47574;52.090;5.244;2023-04-27T07:53:42;102128.0;;;13.95;36.1
61676;BME280;47574;52.090;5.244;2023-04-27T07:56:55;102136.0;;;14.08;36.08
61676;BME280;47574;52.090;5.244;2023-04-27T07:58:31;102132.0;;;14.0;35.94
61676;BME280;47574;52.090;5.244;2023-04-27T08:00:08;102130.0;;;14.25;35.62
61676;BME280;47574;52.090;5.244;2023-04-27T08:01:44;102132.0;;;13.87;35.44
61676;BME280;47574;52.090;5.244;2023-04-27T08:04:57;102130.0;;;13.77;35.28
61676;BME280;47574;52.090;5.244;2023-04-27T08:06:33;102132.0;;;14.13;34.92
61676;BME280;47574;52.090;5.244;2023-04-27T08:08:09;102131.0;;;14.25;35.11
61676;BME280;47574;52.090;5.244;2023-04-27T08:11:21;102137.0;;;14.18;35.25
61676;BME280;47574;52.090;5.244;2023-04-27T08:12:57;102136.0;;;14.38;34.94
61676;BME280;47574;52.090;5.244;2023-04-27T08:14:34;102139.0;;;14.42;35.03
61676;BME280;47574;52.090;5.244;2023-04-27T08:17:46;102136.0;;;14.65;34.57
61676;BME280;47574;52.090;5.244;2023-04-27T08:19:22;102136.0;;;14.62;34.96
61676;BME280;47574;52.090;5.244;2023-04-27T08:20:59;102131.0;;;14.59;35.1
61676;BME280;47574;52.090;5.244;2023-04-27T08:24:11;102130.0;;;14.71;35.54
61676;BME280;47574;52.090;5.244;2023-04-27T08:25:47;102137.0;;;14.5;35.49
61676;BME280;47574;52.090;5.244;2023-04-27T08:27:23;102134.0;;;14.22;35.75
61676;BME280;47574;52.090;5.244;2023-04-27T08:29:00;102132.0;;;14.51;35.08
61676;BME280;47574;52.090;5.244;2023-04-27T08:32:13;102125.0;;;14.59;34.82
61676;BME280;47574;52.090;5.244;2023-04-27T08:33:50;102125.0;;;14.64;34.92
61676;BME280;47574;52.090;5.244;2023-04-27T08:35:26;102124.0;;;14.66;35.03
61676;BME280;47574;52.090;5.244;2023-04-27T08:38:38;102121.0;;;14.86;34.4
61676;BME280;47574;52.090;5.244;2023-04-27T08:40:14;102124.0;;;14.8;34.94
61676;BME280;47574;52.090;5.244;2023-04-27T08:41:50;102123.0;;;14.51;35.5
61676;BME280;47574;52.090;5.244;2023-04-27T08:45:09;102118.0;;;14.88;34.46
61676;BME280;47574;52.090;5.244;2023-04-27T08:46:46;102127.0;;;14.93;34.17
61676;BME280;47574;52.090;5.244;2023-04-27T08:48:22;102119.0;;;14.98;33.8
61676;BME280;47574;52.090;5.244;2023-04-27T08:49:58;102121.0;;;15.32;34.14
61676;BME280;47574;52.090;5.244;2023-04-27T08:53:18;102122.0;;;15.56;33.89
61676;BME280;47574;52.090;5.244;2023-04-27T08:54:54;102118.0;;;15.29;34.28
61676;BME280;47574;52.090;5.244;2023-04-27T08:56:30;102123.0;;;15.44;33.71
61676;BME280;47574;52.090;5.244;2023-04-27T08:59:43;102122.0;;;15.49;33.35
61676;BME280;47574;52.090;5.244;2023-04-27T09:01:19;102121.0;;;15.49;33.75
61676;BME280;47574;52.090;5.244;2023-04-27T09:02:57;102127.0;;;15.48;33.72
61676;BME280;47574;52.090;5.244;2023-04-27T09:04:37;102120.0;;;15.31;33.96
61676;BME280;47574;52.090;5.244;2023-04-27T09:07:58;102125.0;;;15.54;33.15
61676;BME280;47574;52.090;5.244;2023-04-27T09:09:35;102120.0;;;15.42;33.29
61676;BME280;47574;52.090;5.244;2023-04-27T09:11:12;102116.0;;;15.75;33.97
61676;BME280;47574;52.090;5.244;2023-04-27T09:14:34;102117.0;;;15.83;32.8
61676;BME280;47574;52.090;5.244;2023-04-27T09:16:11;102108.0;;;16.15;32.22
61676;BME280;47574;52.090;5.244;2023-04-27T09:17:52;102112.0;;;15.87;32.21
61676;BME280;47574;52.090;5.244;2023-04-27T09:19:29;102113.0;;;15.72;32.05
61676;BME280;47574;52.090;5.244;2023-04-27T09:22:42;102101.0;;;16.11;31.57
61676;BME280;47574;52.090;5.244;2023-04-27T09:24:19;102101.0;;;16.15;31.89
61676;BME280;47574;52.090;5.244;2023-04-27T09:25:55;102108.0;;;15.92;32.35
61676;BME280;47574;52.090;5.244;2023-04-27T09:27:32;102099.0;;;16.15;31.82
61676;BME280;47574;52.090;5.244;2023-04-27T09:30:50;102092.0;;;16.31;31.85
61676;BME280;47574;52.090;5.244;2023-04-27T09:32:27;102096.0;;;16.43;32.56
61676;BME280;47574;52.090;5.244;2023-04-27T09:34:03;102097.0;;;16.34;31.94
61676;BME280;47574;52.090;5.244;2023-04-27T09:37:17;102093.0;;;16.3;32.39
61676;BME280;47574;52.090;5.244;2023-04-27T09:38:54;102095.0;;;16.57;32.72
61676;BME280;47574;52.090;5.244;2023-04-27T09:40:31;102095.0;;;16.45;31.67
61676;BME280;47574;52.090;5.244;2023-04-27T09:42:07;102090.0;;;16.07;32.39
61676;BME280;47574;52.090;5.244;2023-04-27T09:45:21;102095.0;;;16.2;32.76
61676;BME280;47574;52.090;5.244;2023-04-27T09:46:58;102091.0;;;16.48;32.21
61676;BME280;47574;52.090;5.244;2023-04-27T09:48:37;102090.0;;;16.53;31.16
61676;BME280;47574;52.090;5.244;2023-04-27T09:51:51;102087.0;;;16.7;31.0
61676;BME280;47574;52.090;5.244;2023-04-27T09:53:29;102085.0;;;16.45;32.26
61676;BME280;47574;52.090;5.244;2023-04-27T09:55:15;102085.0;;;16.53;32.42
61676;BME280;47574;52.090;5.244;2023-04-27T09:56:59;102087.0;;;16.54;31.91
61676;BME280;47574;52.090;5.244;2023-04-27T10:00:50;102088.0;;;16.34;31.57
61676;BME280;47574;52.090;5.244;2023-04-27T10:02:40;102089.0;;;16.68;30.86
61676;BME280;47574;52.090;5.244;2023-04-27T10:04:36;102091.0;;;16.82;29.88
61676;BME280;47574;52.090;5.244;2023-04-27T10:06:42;102090.0;;;16.71;30.63
61676;BME280;47574;52.090;5.244;2023-04-27T10:08:56;102085.0;;;16.8;30.67
61676;BME280;47574;52.090;5.244;2023-04-27T10:10:41;102090.0;;;16.87;30.99
61676;BME280;47574;52.090;5.244;2023-04-27T10:12:22;102080.0;;;16.98;30.59
61676;BME280;47574;52.090;5.244;2023-04-27T10:14:05;102089.0;;;16.88;30.85
61676;BME280;47574;52.090;5.244;2023-04-27T10:15:41;102080.0;;;16.93;30.99
61676;BME280;47574;52.090;5.244;2023-04-27T10:19:08;102084.0;;;17.02;30.83
61676;BME280;47574;52.090;5.244;2023-04-27T10:20:45;102085.0;;;17.2;30.63
61676;BME280;47574;52.090;5.244;2023-04-27T10:22:22;102084.0;;;17.14;30.55
61676;BME280;47574;52.090;5.244;2023-04-27T10:24:06;102082.0;;;16.84;31.25
61676;BME280;47574;52.090;5.244;2023-04-27T10:27:21;102080.0;;;16.98;30.56
61676;BME280;47574;52.090;5.244;2023-04-27T10:29:04;102073.0;;;16.91;30.88
61676;BME280;47574;52.090;5.244;2023-04-27T10:30:43;102072.0;;;16.66;31.21
61676;BME280;47574;52.090;5.244;2023-04-27T10:32:23;102073.0;;;16.75;31.01
61676;BME280;47574;52.090;5.244;2023-04-27T10:35:53;102070.0;;;16.59;31.2
61676;BME280;47574;52.090;5.244;2023-04-27T10:37:38;102086.0;;;16.66;30.65
61676;BME280;47574;52.090;5.244;2023-04-27T10:39:15;102075.0;;;16.88;29.57
61676;BME280;47574;52.090;5.244;2023-04-27T10:40:54;102074.0;;;16.86;29.85
61676;BME280;47574;52.090;5.244;2023-04-27T10:44:15;102077.0;;;17.02;29.63
61676;BME280;47574;52.090;5.244;2023-04-27T10:45:52;102075.0;;;17.11;30.37
61676;BME280;47574;52.090;5.244;2023-04-27T10:47:37;102076.0;;;17.21;29.46
61676;BME280;47574;52.090;5.244;2023-04-27T10:49:15;102072.0;;;17.34;29.33
61676;BME280;47574;52.090;5.244;2023-04-27T10:52:27;102068.0;;;17.43;29.13
61676;BME280;47574;52.090;5.244;2023-04-27T10:54:03;102063.0;;;17.46;29.1
61676;BME280;47574;52.090;5.244;2023-04-27T10:55:39;102061.0;;;17.45;29.18
61676;BME280;47574;52.090;5.244;2023-04-27T10:58:52;102065.0;;;17.61;28.64
61676;BME280;47574;52.090;5.244;2023-04-27T11:00:30;102063.0;;;17.57;28.18
61676;BME280;47574;52.090;5.244;2023-04-27T11:02:06;102062.0;;;17.53;27.92
61676;BME280;47574;52.090;5.244;2023-04-27T11:03:42;102057.0;;;17.62;27.87
61676;BME280;47574;52.090;5.244;2023-04-27T11:06:56;102057.0;;;17.59;28.07
61676;BME280;47574;52.090;5.244;2023-04-27T11:08:32;102055.0;;;17.91;27.96
61676;BME280;47574;52.090;5.244;2023-04-27T11:10:19;102047.0;;;17.8;27.54